Time;durP1;ratioP1;P1;durP2;ratioP2;P2;SDS_P1;SDS_P2;PMS_P1;PMS_P2;Temp;Humidity;BMP_temperature;BMP_pressure;BME280_temperature;BME280_humidity;BME280_pressure;Samples;Min_cycle;Max_cycle;Signal;HPM_P1;HPM_P2
2023/04/11 00:00:11;;;;;;;4.43;2.90;;;10.40;99.90;;;;;;5158020;27;20282;-72
2023/04/11 00:02:38;;;;;;;4.40;3.10;;;10.40;99.90;;;;;;5174652;27;20483;-72
2023/04/11 00:05:06;;;;;;;4.60;2.77;;;10.50;99.90;;;;;;5174385;27;20636;-71
2023/04/11 00:07:35;;;;;;;5.90;2.77;;;10.40;99.90;;;;;;5174222;27;20238;-72
2023/04/11 00:10:02;;;;;;;5.77;2.80;;;10.30;99.90;;;;;;5174280;27;20261;-72
2023/04/11 00:12:29;;;;;;;5.50;3.10;;;10.30;99.90;;;;;;5156951;27;20255;-73
2023/04/11 00:14:56;;;;;;;4.33;3.13;;;10.10;99.90;;;;;;5157491;27;20227;-72
2023/04/11 00:17:23;;;;;;;5.27;3.00;;;10.00;99.90;;;;;;5173944;27;20259;-71
2023/04/11 00:19:52;;;;;;;4.50;2.97;;;10.10;99.90;;;;;;5174650;27;20234;-70
2023/04/11 00:22:19;;;;;;;4.63;2.93;;;10.10;99.90;;;;;;5174846;27;20203;-69
2023/04/11 00:24:47;;;;;;;4.70;2.97;;;10.10;99.90;;;;;;5173847;27;20194;-70
2023/04/11 00:27:14;;;;;;;5.73;3.40;;;10.00;99.90;;;;;;5171229;27;20644;-69
2023/04/11 00:29:41;;;;;;;4.13;2.97;;;9.60;99.90;;;;;;5165788;27;20286;-69
2023/04/11 00:32:08;;;;;;;4.90;2.70;;;9.40;99.90;;;;;;5159165;27;20238;-69
2023/04/11 00:34:35;;;;;;;3.50;2.50;;;9.60;99.90;;;;;;5160098;27;20234;-69
2023/04/11 00:37:02;;;;;;;2.97;2.23;;;9.70;99.90;;;;;;5173936;27;20234;-69
2023/04/11 00:39:32;;;;;;;3.63;2.37;;;9.90;99.90;;;;;;5174274;27;20219;-69
2023/04/11 00:42:06;;;;;;;4.47;2.30;;;9.90;99.90;;;;;;5172602;27;20358;-69
2023/04/11 00:44:33;;;;;;;6.90;2.60;;;10.00;99.90;;;;;;5174313;27;20648;-69
2023/04/11 00:47:02;;;;;;;4.57;2.40;;;10.00;99.90;;;;;;5173826;27;20242;-70
2023/04/11 00:49:30;;;;;;;4.33;2.40;;;9.90;99.90;;;;;;5174389;27;20212;-69
2023/04/11 00:51:58;;;;;;;3.80;2.20;;;9.80;99.90;;;;;;5174488;27;20198;-69
2023/04/11 00:54:28;;;;;;;2.43;1.93;;;9.70;99.90;;;;;;5175905;27;20223;-69
2023/04/11 00:56:57;;;;;;;3.53;2.37;;;9.70;99.90;;;;;;5176704;27;20198;-69
2023/04/11 00:59:27;;;;;;;3.07;2.23;;;9.70;99.90;;;;;;5177931;27;20234;-69
2023/04/11 01:01:54;;;;;;;3.43;2.20;;;9.50;99.90;;;;;;5178133;27;20285;-69
2023/04/11 01:04:21;;;;;;;3.23;2.20;;;9.50;99.90;;;;;;5169633;27;20195;-69
2023/04/11 01:06:53;;;;;;;4.00;2.20;;;9.40;99.90;;;;;;5172710;27;20207;-69
2023/04/11 01:09:21;;;;;;;2.87;2.03;;;9.40;99.90;;;;;;5174233;27;20202;-69
2023/04/11 01:11:49;;;;;;;3.60;2.43;;;9.30;99.90;;;;;;5177437;27;20630;-69
2023/04/11 01:14:18;;;;;;;2.37;2.13;;;9.40;99.90;;;;;;5177577;27;20241;-69
2023/04/11 01:16:47;;;;;;;3.37;2.60;;;9.50;99.90;;;;;;5178016;27;20234;-69
2023/04/11 01:19:18;;;;;;;5.13;3.40;;;9.40;99.90;;;;;;5176988;27;20274;-69
2023/04/11 01:21:45;;;;;;;3.53;2.57;;;9.40;99.90;;;;;;5177743;27;20286;-69
2023/04/11 01:24:14;;;;;;;3.67;2.50;;;9.50;99.90;;;;;;5177239;27;20720;-69
2023/04/11 01:26:41;;;;;;;3.07;2.30;;;9.40;99.90;;;;;;5177442;27;20213;-69
2023/04/11 01:29:08;;;;;;;2.83;2.23;;;9.50;99.90;;;;;;5176295;27;20261;-69
2023/04/11 01:31:35;;;;;;;2.93;2.20;;;9.50;99.90;;;;;;5176806;27;20286;-69
2023/04/11 01:34:03;;;;;;;3.23;2.23;;;9.50;99.90;;;;;;5177817;27;20223;-69
2023/04/11 01:36:31;;;;;;;2.17;1.80;;;9.50;99.90;;;;;;5177628;27;20307;-69
2023/04/11 01:38:58;;;;;;;3.07;2.03;;;9.40;99.90;;;;;;5177124;27;20225;-69
2023/04/11 01:41:27;;;;;;;2.00;1.80;;;9.50;99.90;;;;;;5167472;27;20282;-69
2023/04/11 01:43:54;;;;;;;2.70;2.03;;;9.40;99.90;;;;;;5156004;27;20606;-69
2023/04/11 01:46:22;;;;;;;1.83;1.70;;;9.40;99.90;;;;;;5169099;27;20258;-69
2023/04/11 01:48:50;;;;;;;2.50;1.87;;;9.40;99.90;;;;;;5160805;27;20270;-69
2023/04/11 01:51:17;;;;;;;2.70;1.90;;;9.30;99.90;;;;;;5168863;27;20234;-69
2023/04/11 01:53:46;;;;;;;3.20;2.47;;;9.40;99.90;;;;;;5177497;27;20237;-69
2023/04/11 01:56:13;;;;;;;4.10;2.00;;;9.40;99.90;;;;;;5177441;27;20521;-69
2023/04/11 01:58:42;;;;;;;2.63;1.70;;;9.40;99.90;;;;;;5176923;27;20231;-69
2023/04/11 02:01:10;;;;;;;1.90;1.37;;;9.40;99.90;;;;;;5177385;27;20281;-69
2023/04/11 02:03:37;;;;;;;2.33;1.57;;;9.40;99.90;;;;;;5177422;27;20586;-69
2023/04/11 02:06:05;;;;;;;2.07;1.20;;;9.50;99.90;;;;;;5177112;27;20234;-69
2023/04/11 02:08:32;;;;;;;4.03;1.53;;;9.40;99.90;;;;;;5175566;27;20268;-69
2023/04/11 02:10:59;;;;;;;1.00;1.00;;;9.40;99.90;;;;;;5156020;27;20656;-69
2023/04/11 02:13:26;;;;;;;1.30;1.20;;;9.30;99.90;;;;;;5172690;27;20203;-69
2023/04/11 02:15:54;;;;;;;2.50;1.23;;;9.30;99.90;;;;;;5177150;27;20543;-69
2023/04/11 02:18:21;;;;;;;1.43;1.10;;;9.40;99.90;;;;;;5176859;27;20222;-69
2023/04/11 02:20:49;;;;;;;1.60;1.10;;;9.30;99.90;;;;;;5176998;27;20231;-65
2023/04/11 02:23:15;;;;;;;1.20;0.90;;;9.20;99.90;;;;;;5176968;27;20191;-65
2023/04/11 02:25:42;;;;;;;1.00;0.90;;;9.30;99.90;;;;;;5176496;27;20230;-65
2023/04/11 02:28:09;;;;;;;1.03;0.90;;;9.20;99.90;;;;;;5176504;27;20559;-66
2023/04/11 02:30:36;;;;;;;0.80;0.80;;;9.30;99.90;;;;;;5176533;27;20238;-65
2023/04/11 02:33:05;;;;;;;7.87;3.40;;;9.30;99.90;;;;;;5176621;27;20234;-65
2023/04/11 02:35:32;;;;;;;1.70;1.00;;;9.30;99.90;;;;;;5176666;27;20712;-65
2023/04/11 02:37:59;;;;;;;1.13;0.80;;;9.40;99.90;;;;;;5176359;27;20230;-66
2023/04/11 02:40:26;;;;;;;1.53;0.87;;;9.40;99.90;;;;;;5176455;27;20563;-66
2023/04/11 02:42:53;;;;;;;0.67;0.67;;;9.30;99.90;;;;;;5176227;27;20203;-66
2023/04/11 02:45:20;;;;;;;1.20;1.00;;;9.20;99.90;;;;;;5175461;27;20281;-66
2023/04/11 02:47:47;;;;;;;1.80;0.90;;;9.20;99.90;;;;;;5167653;27;20194;-66
2023/04/11 02:50:15;;;;;;;1.07;0.90;;;9.20;99.90;;;;;;5175602;27;20234;-65
2023/04/11 02:52:44;;;;;;;1.63;0.70;;;9.20;99.90;;;;;;5176037;27;20199;-66
2023/04/11 02:55:11;;;;;;;1.73;0.60;;;9.20;99.90;;;;;;5176198;27;20207;-66
2023/04/11 02:57:38;;;;;;;3.27;0.90;;;9.10;99.90;;;;;;5175506;27;20195;-68
2023/04/11 03:00:07;;;;;;;0.70;0.70;;;9.10;99.90;;;;;;5175768;27;20254;-69
2023/04/11 03:02:34;;;;;;;2.47;0.73;;;9.10;99.90;;;;;;5175267;27;20235;-69
2023/04/11 03:05:02;;;;;;;0.77;0.77;;;9.10;99.90;;;;;;5175936;27;20254;-68
2023/04/11 03:07:31;;;;;;;2.83;1.00;;;9.10;99.90;;;;;;5172741;27;20286;-68
2023/04/11 03:09:58;;;;;;;0.87;0.87;;;9.00;99.90;;;;;;5162046;22;20233;-80
2023/04/11 03:12:26;;;;;;;1.80;1.00;;;8.90;99.90;;;;;;5123494;28;20270;-79
2023/04/11 03:14:52;;;;;;;1.60;1.17;;;8.80;99.90;;;;;;5108496;28;20224;-78
2023/04/11 03:17:20;;;;;;;1.57;0.80;;;9.00;99.90;;;;;;5105676;28;20586;-80
2023/04/11 03:19:47;;;;;;;1.70;1.40;;;8.90;99.90;;;;;;5092107;28;20304;-80
2023/04/11 03:22:14;;;;;;;3.20;1.67;;;8.90;99.90;;;;;;5117009;28;20205;-79
2023/04/11 03:24:42;;;;;;;5.17;1.97;;;8.90;99.90;;;;;;5111391;28;20222;-78
2023/04/11 03:27:09;;;;;;;2.70;1.07;;;8.90;99.90;;;;;;5122466;28;20205;-79
2023/04/11 03:29:36;;;;;;;1.53;1.00;;;8.90;99.90;;;;;;5122998;28;20292;-78
2023/04/11 03:32:03;;;;;;;2.50;0.90;;;9.00;99.90;;;;;;5103547;28;20206;-79
2023/04/11 03:34:30;;;;;;;5.93;2.63;;;9.00;99.90;;;;;;5103772;28;20237;-80
2023/04/11 03:36:56;;;;;;;1.50;1.10;;;9.00;99.90;;;;;;5104439;28;20265;-80
2023/04/11 03:39:23;;;;;;;2.77;1.27;;;9.10;99.90;;;;;;5103820;28;20221;-80
2023/04/11 03:41:51;;;;;;;3.27;1.17;;;9.10;99.90;;;;;;5102266;28;20247;-80
2023/04/11 03:44:18;;;;;;;4.20;1.17;;;9.10;99.90;;;;;;5083300;28;20245;-80
2023/04/11 03:46:45;;;;;;;3.33;1.40;;;9.00;99.90;;;;;;5084002;28;20574;-80
2023/04/11 03:49:12;;;;;;;1.50;1.37;;;9.00;99.90;;;;;;5081444;28;20191;-79
2023/04/11 03:51:39;;;;;;;3.37;1.93;;;9.00;99.90;;;;;;5083524;28;20262;-78
2023/04/11 03:54:06;;;;;;;2.70;1.23;;;9.10;99.90;;;;;;5083374;28;20222;-80
2023/04/11 03:56:32;;;;;;;3.77;1.60;;;9.10;99.90;;;;;;5083254;28;20199;-81
2023/04/11 03:59:01;;;;;;;3.90;1.50;;;9.10;99.90;;;;;;5083771;28;20228;-80
2023/04/11 04:01:28;;;;;;;3.13;1.70;;;9.20;99.90;;;;;;5083905;28;20205;-77
2023/04/11 04:03:54;;;;;;;4.90;1.60;;;9.10;99.90;;;;;;5083822;28;20289;-79
2023/04/11 04:06:21;;;;;;;3.50;1.90;;;9.10;99.90;;;;;;5083862;28;20205;-80
2023/04/11 04:08:48;;;;;;;4.70;1.83;;;9.10;99.90;;;;;;5083219;28;20319;-79
2023/04/11 04:11:15;;;;;;;3.63;2.20;;;9.10;99.90;;;;;;5084272;28;20217;-79
2023/04/11 04:13:42;;;;;;;2.93;2.20;;;9.10;99.90;;;;;;5084302;28;20305;-80
2023/04/11 04:16:10;;;;;;;3.57;2.37;;;9.20;99.90;;;;;;5084611;28;20210;-79
2023/04/11 04:18:37;;;;;;;6.17;2.77;;;9.20;99.90;;;;;;5083521;28;20268;-79
2023/04/11 04:21:06;;;;;;;5.00;2.40;;;9.30;99.90;;;;;;5083801;28;20206;-79
2023/04/11 04:23:32;;;;;;;5.97;2.53;;;9.20;99.90;;;;;;5083263;28;20226;-81
2023/04/11 04:26:01;;;;;;;4.40;2.50;;;9.20;99.90;;;;;;5083142;28;20293;-79
2023/04/11 04:28:27;;;;;;;4.53;2.60;;;9.10;99.90;;;;;;5082253;28;20209;-80
2023/04/11 04:30:56;;;;;;;4.77;2.50;;;9.10;99.90;;;;;;5083501;28;20233;-79
2023/04/11 04:33:25;;;;;;;3.63;2.30;;;9.10;99.90;;;;;;5082518;28;20221;-78
2023/04/11 04:35:56;;;;;;;5.07;2.63;;;9.00;99.90;;;;;;5082059;28;20202;-79
2023/04/11 04:38:27;;;;;;;4.73;2.97;;;8.90;99.90;;;;;;5082380;28;20267;-79
2023/04/11 04:40:54;;;;;;;3.00;2.60;;;8.90;99.90;;;;;;5083464;28;20222;-80
2023/04/11 04:43:23;;;;;;;5.73;2.80;;;8.90;99.90;;;;;;5084254;28;20205;-79
2023/04/11 04:45:50;;;;;;;5.50;2.70;;;8.90;99.90;;;;;;5083588;28;20190;-79
2023/04/11 04:48:17;;;;;;;6.47;2.67;;;8.80;99.90;;;;;;5084042;28;20210;-80
2023/04/11 04:50:45;;;;;;;5.50;2.40;;;8.70;99.90;;;;;;5083858;28;20641;-79
2023/04/11 04:53:12;;;;;;;3.60;2.43;;;8.80;99.90;;;;;;5084395;28;20205;-80
2023/04/11 04:55:39;;;;;;;3.20;2.40;;;8.80;99.90;;;;;;5083537;28;20214;-79
2023/04/11 04:58:06;;;;;;;5.33;2.07;;;8.80;99.90;;;;;;5081784;28;20643;-80
2023/04/11 05:00:33;;;;;;;3.27;2.00;;;8.90;99.90;;;;;;5079867;28;20230;-79
2023/04/11 05:03:04;;;;;;;6.53;2.20;;;8.70;99.90;;;;;;5081172;28;20595;-79
2023/04/11 05:05:31;;;;;;;2.67;2.03;;;8.90;99.90;;;;;;5079859;28;20705;-79
2023/04/11 05:07:59;;;;;;;5.63;2.20;;;8.90;99.90;;;;;;5080651;28;20209;-80
2023/04/11 05:10:26;;;;;;;3.80;2.20;;;8.90;99.90;;;;;;5081282;28;20206;-81
2023/04/11 05:12:54;;;;;;;6.70;2.17;;;8.80;99.90;;;;;;5081775;28;20217;-79
2023/04/11 05:15:22;;;;;;;3.07;2.07;;;8.80;99.90;;;;;;5081392;28;20238;-79
2023/04/11 05:17:49;;;;;;;7.43;2.07;;;8.80;99.90;;;;;;5081808;28;20206;-79
2023/04/11 05:20:15;;;;;;;3.10;2.23;;;8.80;99.90;;;;;;5082063;28;20566;-78
2023/04/11 05:22:43;;;;;;;4.37;2.00;;;8.70;99.90;;;;;;5089818;28;20210;-80
2023/04/11 05:25:11;;;;;;;5.63;2.07;;;8.60;99.90;;;;;;5096827;28;20221;-79
2023/04/11 05:27:38;;;;;;;3.60;2.10;;;8.60;99.90;;;;;;5091820;28;20198;-79
2023/04/11 05:30:06;;;;;;;4.50;2.70;;;8.50;99.90;;;;;;5088259;28;20212;-78
2023/04/11 05:32:33;;;;;;;8.97;2.63;;;8.50;99.90;;;;;;5081941;28;20195;-79
2023/04/11 05:35:00;;;;;;;5.07;2.07;;;8.30;99.90;;;;;;5096116;28;20552;-80
2023/04/11 05:37:26;;;;;;;8.77;2.60;;;8.50;99.90;;;;;;5098965;28;20213;-80
2023/04/11 05:39:55;;;;;;;5.57;2.83;;;8.50;99.90;;;;;;5102676;28;20726;-80
2023/04/11 05:42:23;;;;;;;8.80;3.00;;;8.60;99.90;;;;;;5088999;28;20210;-79
2023/04/11 05:44:50;;;;;;;6.37;3.00;;;8.70;99.90;;;;;;5098721;28;20221;-79
2023/04/11 05:47:16;;;;;;;5.67;2.57;;;8.70;99.90;;;;;;5105363;28;20201;-79
2023/04/11 05:49:43;;;;;;;10.13;2.73;;;8.80;99.90;;;;;;5093652;28;20666;-79
2023/04/11 05:52:10;;;;;;;7.33;3.10;;;9.00;99.90;;;;;;5085605;28;20202;-79
2023/04/11 05:54:37;;;;;;;5.93;2.83;;;9.30;99.90;;;;;;5085897;28;20244;-79
2023/04/11 05:57:06;;;;;;;8.10;3.43;;;9.90;99.90;;;;;;5085188;28;20209;-81
2023/04/11 05:59:35;;;;;;;8.63;3.07;;;10.80;99.90;;;;;;5084323;28;20230;-79
2023/04/11 06:02:02;;;;;;;8.13;2.90;;;11.10;99.90;;;;;;5083972;28;20206;-79
2023/04/11 06:04:29;;;;;;;8.07;3.17;;;10.70;99.90;;;;;;5083592;28;20218;-79
2023/04/11 06:06:56;;;;;;;7.10;3.33;;;10.60;99.90;;;;;;5084020;28;20217;-80
2023/04/11 06:09:23;;;;;;;8.40;3.10;;;10.70;99.90;;;;;;5092529;28;20300;-79
2023/04/11 06:11:50;;;;;;;9.40;3.47;;;10.80;99.90;;;;;;5091050;28;20216;-79
2023/04/11 06:14:16;;;;;;;12.20;4.07;;;11.20;99.90;;;;;;5102222;28;20220;-82
2023/04/11 06:16:44;;;;;;;11.63;4.20;;;11.00;99.90;;;;;;5089304;28;20206;-81
2023/04/11 06:19:11;;;;;;;9.07;3.70;;;10.60;99.90;;;;;;5084964;28;20198;-81
2023/04/11 06:21:38;;;;;;;8.53;4.17;;;10.50;99.90;;;;;;5099275;28;20229;-80
2023/04/11 06:24:08;;;;;;;12.03;3.80;;;10.40;99.90;;;;;;5104859;28;20253;-81
2023/04/11 06:26:35;;;;;;;6.03;3.70;;;10.20;99.90;;;;;;5105566;28;20209;-80
2023/04/11 06:29:05;;;;;;;10.60;5.37;;;9.80;99.90;;;;;;5106711;28;20602;-82
2023/04/11 06:31:32;;;;;;;11.83;4.23;;;9.50;99.90;;;;;;5093028;28;20260;-81
2023/04/11 06:34:00;;;;;;;11.70;4.30;;;9.40;99.90;;;;;;5086801;28;20222;-80
2023/04/11 06:36:27;;;;;;;8.40;3.63;;;9.20;99.90;;;;;;5099848;28;20205;-80
2023/04/11 06:38:54;;;;;;;15.47;3.97;;;9.00;99.90;;;;;;5107133;28;20208;-79
2023/04/11 06:41:20;;;;;;;11.03;4.33;;;8.90;99.90;;;;;;5105874;28;20222;-79
2023/04/11 06:43:47;;;;;;;8.70;2.70;;;9.00;99.90;;;;;;5104796;28;20251;-81
2023/04/11 06:46:14;;;;;;;4.07;2.07;;;8.20;99.90;;;;;;5104272;28;20210;-81
2023/04/11 06:48:41;;;;;;;4.03;2.30;;;7.60;99.90;;;;;;5107674;28;20194;-80
2023/04/11 06:51:09;;;;;;;1.53;0.97;;;7.30;99.90;;;;;;5098409;28;20228;-80
2023/04/11 06:53:36;;;;;;;1.03;0.50;;;7.00;99.90;;;;;;5085187;28;20286;-81
2023/04/11 06:56:03;;;;;;;2.73;0.77;;;6.60;99.90;;;;;;5090337;28;20281;-81
2023/04/11 06:58:30;;;;;;;0.77;0.77;;;6.50;99.90;;;;;;5104453;28;20573;-79
2023/04/11 07:00:57;;;;;;;2.57;0.80;;;6.60;99.90;;;;;;5104687;28;20221;-82
2023/04/11 07:03:24;;;;;;;1.70;0.63;;;6.70;99.90;;;;;;5100984;28;20251;-79
2023/04/11 07:05:51;;;;;;;2.77;0.83;;;6.80;99.90;;;;;;5090903;28;20645;-80
2023/04/11 07:08:19;;;;;;;3.47;0.80;;;6.90;99.90;;;;;;5105015;28;20201;-81
2023/04/11 07:10:46;;;;;;;1.20;0.80;;;6.90;99.90;;;;;;5104502;28;20219;-82
2023/04/11 07:13:13;;;;;;;1.20;0.53;;;6.90;99.90;;;;;;5105160;28;20198;-82
2023/04/11 07:15:40;;;;;;;1.63;0.70;;;6.90;99.90;;;;;;5104922;28;20209;-79
2023/04/11 07:18:07;;;;;;;4.60;1.00;;;6.90;99.90;;;;;;5105708;28;20198;-78
2023/04/11 07:20:34;;;;;;;1.77;0.63;;;7.00;99.90;;;;;;5106452;28;20232;-79
2023/04/11 07:23:02;;;;;;;2.17;0.90;;;7.10;99.90;;;;;;5106430;28;20198;-78
2023/04/11 07:25:32;;;;;;;3.07;0.90;;;7.20;99.90;;;;;;5104653;28;20222;-81
2023/04/11 07:27:59;;;;;;;3.87;1.50;;;7.30;99.90;;;;;;5096452;28;20545;-82
2023/04/11 07:30:26;;;;;;;3.60;1.20;;;7.30;99.90;;;;;;5099836;28;20210;-82
2023/04/11 07:32:52;;;;;;;3.13;1.70;;;7.40;99.90;;;;;;5102814;28;20194;-79
2023/04/11 07:35:20;;;;;;;3.50;1.40;;;7.50;99.90;;;;;;5099220;28;20713;-82
2023/04/11 07:37:46;;;;;;;2.97;1.43;;;7.60;99.90;;;;;;5083557;28;20206;-83
2023/04/11 07:40:14;;;;;;;1.63;1.00;;;7.70;99.90;;;;;;5083661;28;20233;-81
2023/04/11 07:42:42;;;;;;;2.67;1.50;;;7.80;99.90;;;;;;5083986;28;20237;-82
2023/04/11 07:45:09;;;;;;;3.43;1.30;;;8.10;99.90;;;;;;5084510;28;20305;-82
2023/04/11 07:47:36;;;;;;;3.60;1.53;;;8.10;99.90;;;;;;5084786;28;20292;-79
2023/04/11 07:50:03;;;;;;;2.20;1.37;;;8.20;99.90;;;;;;5084807;28;20198;-82
2023/04/11 07:52:30;;;;;;;5.73;1.77;;;8.30;99.90;;;;;;5085932;28;20577;-81
2023/04/11 07:54:57;;;;;;;2.70;1.87;;;8.70;99.90;;;;;;5084845;28;20226;-81
2023/04/11 07:57:24;;;;;;;5.67;1.97;;;9.00;99.90;;;;;;5084103;28;20209;-80
2023/04/11 07:59:52;;;;;;;3.07;1.70;;;9.00;99.90;;;;;;5082564;28;20301;-82
2023/04/11 08:02:19;;;;;;;2.97;1.40;;;9.20;99.90;;;;;;5104786;28;20579;-81
2023/04/11 08:04:46;;;;;;;5.30;1.97;;;9.40;99.90;;;;;;5103560;28;20251;-82
2023/04/11 08:07:12;;;;;;;4.47;1.80;;;9.40;99.90;;;;;;5099599;28;20194;-79
2023/04/11 08:09:41;;;;;;;3.70;2.10;;;9.60;99.90;;;;;;5101810;28;20212;-82
2023/04/11 08:12:08;;;;;;;4.60;1.77;;;9.50;99.90;;;;;;5084233;28;20241;-81
2023/04/11 08:14:35;;;;;;;6.43;2.20;;;9.70;99.90;;;;;;5095108;28;20214;-81
2023/04/11 08:17:03;;;;;;;6.10;2.07;;;9.80;99.90;;;;;;5090701;28;20230;-82
2023/04/11 08:19:31;;;;;;;3.70;2.00;;;9.80;99.90;;;;;;5086043;28;20213;-81
2023/04/11 08:21:57;;;;;;;4.77;2.30;;;10.00;99.90;;;;;;5084526;28;20294;-83
2023/04/11 08:24:24;;;;;;;5.83;2.03;;;10.00;99.90;;;;;;5085208;28;20228;-82
2023/04/11 08:26:51;;;;;;;2.17;1.70;;;10.20;99.90;;;;;;5084893;28;20373;-79
2023/04/11 08:29:18;;;;;;;3.80;1.80;;;10.20;99.90;;;;;;5085437;28;20202;-81
2023/04/11 08:31:45;;;;;;;3.97;1.70;;;10.30;99.90;;;;;;5100918;28;20216;-81
2023/04/11 08:34:13;;;;;;;3.23;1.53;;;10.10;99.90;;;;;;5104583;28;20263;-80
2023/04/11 08:36:41;;;;;;;3.20;1.40;;;10.10;99.90;;;;;;5103678;28;20205;-80
2023/04/11 08:39:08;;;;;;;2.57;1.53;;;10.30;99.90;;;;;;5104701;28;20642;-79
2023/04/11 08:41:37;;;;;;;2.30;1.23;;;10.60;99.90;;;;;;5090534;28;20286;-80
2023/04/11 08:44:04;;;;;;;2.17;1.20;;;10.70;99.90;;;;;;5085017;28;20218;-80
2023/04/11 08:46:32;;;;;;;1.40;1.10;;;10.60;99.90;;;;;;5101930;28;20206;-81
2023/04/11 08:49:00;;;;;;;2.13;1.33;;;10.40;99.90;;;;;;5103917;28;20208;-81
2023/04/11 08:51:28;;;;;;;1.87;1.03;;;10.40;99.90;;;;;;5090240;28;20206;-80
2023/04/11 08:53:58;;;;;;;5.43;1.60;;;10.60;99.90;;;;;;5085160;28;20289;-79
2023/04/11 08:56:25;;;;;;;2.43;1.60;;;10.60;99.90;;;;;;5095936;28;20202;-82
2023/04/11 08:58:52;;;;;;;2.07;1.40;;;10.70;99.90;;;;;;5097028;28;20240;-81
2023/04/11 09:01:27;;;;;;;3.67;1.97;;;10.50;99.90;;;;;;5101101;28;20643;-80
2023/04/11 09:03:54;;;;;;;4.57;1.50;;;10.40;99.90;;;;;;5096991;28;20228;-80
2023/04/11 09:06:21;;;;;;;4.27;1.80;;;10.50;99.90;;;;;;5090750;28;20206;-80
2023/04/11 09:08:50;;;;;;;3.53;1.50;;;10.40;99.90;;;;;;5083515;28;20550;-80
2023/04/11 09:11:17;;;;;;;3.60;1.73;;;10.50;99.90;;;;;;5091653;28;20193;-80
2023/04/11 09:13:44;;;;;;;4.13;2.00;;;10.60;99.90;;;;;;5104406;28;20228;-80
2023/04/11 09:16:12;;;;;;;3.70;1.70;;;10.50;99.90;;;;;;5096169;28;20642;-79
2023/04/11 09:18:41;;;;;;;3.37;1.97;;;10.60;99.90;;;;;;5088069;28;20658;-78
2023/04/11 09:21:09;;;;;;;2.43;1.57;;;10.30;99.90;;;;;;5088834;28;20297;-80
2023/04/11 09:23:37;;;;;;;3.13;1.63;;;10.30;99.90;;;;;;5087477;28;20248;-79
2023/04/11 09:26:08;;;;;;;4.80;2.20;;;10.10;99.90;;;;;;5095951;28;20269;-79
2023/04/11 09:28:43;;;;;;;4.07;1.90;;;10.20;99.90;;;;;;5099810;28;20200;-80
2023/04/11 09:31:11;;;;;;;3.33;2.40;;;10.50;99.90;;;;;;5095376;28;20227;-79
2023/04/11 09:33:38;;;;;;;6.37;2.23;;;11.20;99.90;;;;;;5108738;28;20674;-78
2023/04/11 09:36:19;;;;;;;6.67;1.90;;;11.20;99.90;;;;;;5098905;28;20624;-82
2023/04/11 09:38:46;;;;;;;6.83;1.90;;;11.50;99.90;;;;;;5090838;28;20209;-80
2023/04/11 09:41:15;;;;;;;5.40;1.97;;;12.00;99.90;;;;;;5094844;28;20575;-81
2023/04/11 09:43:52;;;;;;;8.77;2.13;;;11.80;99.90;;;;;;5105435;28;20261;-82
2023/04/11 09:46:20;;;;;;;4.40;1.87;;;11.60;99.90;;;;;;5107173;28;20202;-81
2023/04/11 09:48:48;;;;;;;4.33;1.50;;;11.80;99.90;;;;;;5107632;28;20213;-79
2023/04/11 09:51:15;;;;;;;3.17;1.70;;;11.70;99.90;;;;;;5097994;28;20305;-80
2023/04/11 09:53:43;;;;;;;5.13;1.97;;;11.80;99.90;;;;;;5102345;28;20228;-80
2023/04/11 09:56:10;;;;;;;5.23;1.70;;;11.80;99.90;;;;;;5085791;28;20293;-80
2023/04/11 09:58:39;;;;;;;5.57;2.00;;;11.90;99.90;;;;;;5086098;28;20209;-81
2023/04/11 10:01:09;;;;;;;5.73;1.70;;;12.00;99.90;;;;;;5086382;28;20267;-79
2023/04/11 10:03:38;;;;;;;2.97;1.40;;;11.90;99.90;;;;;;5087153;28;20702;-81
2023/04/11 10:06:07;;;;;;;4.20;1.77;;;12.00;99.90;;;;;;5085659;28;20213;-79
2023/04/11 10:08:36;;;;;;;1.97;1.40;;;11.90;99.90;;;;;;5087634;28;20232;-81
2023/04/11 10:11:06;;;;;;;3.73;1.80;;;12.00;99.90;;;;;;5087902;28;20233;-80
2023/04/11 10:13:44;;;;;;;3.40;2.03;;;11.80;99.90;;;;;;5087904;28;20228;-78
2023/04/11 10:16:13;;;;;;;3.57;1.07;;;11.50;99.90;;;;;;5085505;28;20654;-78
2023/04/11 10:19:16;;;;;;;1.90;0.90;;;10.70;99.90;;;;;;5087069;28;20688;-80
2023/04/11 10:21:42;;;;;;;2.17;1.13;;;9.90;99.90;;;;;;5078670;28;20646;-80
2023/04/11 10:24:11;;;;;;;1.63;1.20;;;9.50;99.90;;;;;;5087190;28;20236;-80
2023/04/11 10:26:49;;;;;;;4.60;1.70;;;9.60;99.90;;;;;;5085450;28;20206;-79
2023/04/11 10:29:55;;;;;;;3.90;1.40;;;9.60;99.90;;;;;;5088437;28;20265;-80
2023/04/11 10:32:26;;;;;;;2.60;1.70;;;10.20;99.90;;;;;;5082348;28;20267;-79
2023/04/11 10:35:33;;;;;;;2.73;1.60;;;11.10;99.90;;;;;;5087219;28;20232;-78
2023/04/11 10:37:59;;;;;;;3.13;1.43;;;11.50;99.90;;;;;;5086888;28;20269;-81
2023/04/11 10:40:26;;;;;;;3.80;1.60;;;11.40;99.90;;;;;;5084892;28;20208;-80
2023/04/11 10:42:53;;;;;;;2.37;1.60;;;11.80;99.90;;;;;;5085535;28;20219;-80
2023/04/11 10:45:23;;;;;;;3.23;1.33;;;11.60;99.90;;;;;;5085666;28;20430;-81
2023/04/11 10:48:10;;;;;;;0.90;0.90;;;11.80;99.90;;;;;;5085553;28;20226;-81
2023/04/11 10:50:46;;;;;;;2.70;1.30;;;12.40;99.90;;;;;;5084522;28;20198;-79
2023/04/11 10:53:37;;;;;;;4.07;1.37;;;12.90;99.90;;;;;;5083369;28;20224;-80
2023/04/11 10:56:04;;;;;;;3.00;1.20;;;13.00;99.90;;;;;;5083392;28;20634;-81
2023/04/11 10:58:35;;;;;;;5.07;1.30;;;13.20;99.90;;;;;;5082843;28;20225;-79
2023/04/11 11:01:19;;;;;;;2.33;1.17;;;13.50;99.90;;;;;;5082998;28;20229;-81
2023/04/11 11:03:57;;;;;;;2.43;1.20;;;14.10;99.90;;;;;;5088135;28;20245;-79
2023/04/11 11:06:25;;;;;;;2.90;1.43;;;14.00;99.90;;;;;;5085563;28;20684;-77
2023/04/11 11:08:53;;;;;;;3.03;0.90;;;13.40;99.90;;;;;;5085386;28;20211;-78
2023/04/11 11:11:20;;;;;;;2.50;0.90;;;13.80;99.90;;;;;;5085445;28;20206;-79
2023/04/11 11:13:49;;;;;;;2.33;1.10;;;14.30;99.90;;;;;;5085954;28;20264;-80
2023/04/11 11:16:19;;;;;;;2.47;1.03;;;14.40;1.00;;;;;;5085761;28;20334;-78
2023/04/11 11:18:48;;;;;;;7.47;1.60;;;14.50;1.00;;;;;;5085754;28;20202;-79
2023/04/11 11:21:18;;;;;;;3.23;1.00;;;14.50;1.00;;;;;;5085422;28;20218;-81
2023/04/11 11:23:56;;;;;;;4.33;1.10;;;13.80;99.90;;;;;;5084298;28;20253;-80
2023/04/11 11:26:24;;;;;;;3.83;1.53;;;13.50;64.00;;;;;;5084757;28;20220;-81
2023/04/11 11:28:51;;;;;;;3.80;1.10;;;13.50;1.00;;;;;;5084666;28;20201;-80
2023/04/11 11:31:18;;;;;;;3.43;0.97;;;13.20;1.00;;;;;;5084358;28;20203;-79
2023/04/11 11:33:45;;;;;;;2.07;0.90;;;13.30;1.00;;;;;;5084130;28;20229;-81
2023/04/11 11:36:14;;;;;;;3.37;1.03;;;13.90;1.00;;;;;;5083660;28;20614;-80
2023/04/11 11:38:43;;;;;;;2.70;0.90;;;14.30;99.90;;;;;;5095938;28;20208;-78
2023/04/11 11:41:10;;;;;;;1.90;1.00;;;14.40;43.70;;;;;;5089989;28;20269;-78
2023/04/11 11:43:39;;;;;;;2.83;1.13;;;14.60;1.00;;;;;;5104473;28;20213;-78
2023/04/11 11:46:13;;;;;;;2.67;1.03;;;14.90;1.00;;;;;;5105619;28;20657;-81
2023/04/11 11:48:40;;;;;;;2.40;1.07;;;14.90;1.00;;;;;;5106371;28;20216;-78
2023/04/11 11:51:07;;;;;;;5.70;1.13;;;15.20;1.00;;;;;;5105281;28;20268;-80
2023/04/11 11:53:34;;;;;;;11.90;1.20;;;15.20;1.00;;;;;;5104962;28;20596;-79
2023/04/11 11:56:12;;;;;;;3.50;0.82;;;14.90;99.90;;;;;;5103800;28;20232;-82
2023/04/11 11:58:43;;;;;;;5.07;1.35;;;15.10;99.90;;;;;;5103062;28;20193;-81
2023/04/11 12:01:13;;;;;;;4.60;1.63;;;15.80;99.90;;;;;;5102488;28;20194;-78
2023/04/11 12:03:40;;;;;;;2.05;0.60;;;16.00;2.20;;;;;;5102493;28;20225;-78
2023/04/11 12:06:09;;;;;;;2.13;0.90;;;15.70;1.00;;;;;;5103389;28;20293;-81
2023/04/11 12:08:42;;;;;;;4.10;1.30;;;15.30;1.00;;;;;;5091868;28;20201;-81
2023/04/11 12:11:13;;;;;;;4.15;1.17;;;14.90;1.00;;;;;;5082633;28;20229;-81
2023/04/11 12:13:40;;;;;;;3.65;0.80;;;15.10;1.00;;;;;;5082244;28;20232;-78
2023/04/11 12:16:08;;;;;;;3.38;1.20;;;14.90;99.90;;;;;;5081758;28;20202;-81
2023/04/11 12:18:40;;;;;;;2.80;0.93;;;14.50;99.90;;;;;;5083312;28;20662;-79
2023/04/11 12:21:07;;;;;;;2.30;0.90;;;14.40;99.90;;;;;;5083418;28;20175;-78
2023/04/11 12:23:34;;;;;;;7.70;1.17;;;14.20;1.00;;;;;;5083776;28;20682;-80
2023/04/11 12:26:01;;;;;;;2.73;1.00;;;13.80;1.00;;;;;;5083305;28;20202;-79
2023/04/11 12:28:29;;;;;;;4.70;1.30;;;13.80;1.00;;;;;;5082529;28;20230;-80
2023/04/11 12:30:56;;;;;;;1.90;1.10;;;13.70;1.00;;;;;;5083275;28;20210;-80
2023/04/11 12:33:23;;;;;;;2.57;1.30;;;13.60;1.00;;;;;;5082293;28;20274;-80
2023/04/11 12:35:49;;;;;;;4.17;1.47;;;13.40;1.00;;;;;;5081560;28;20213;-79
2023/04/11 12:38:16;;;;;;;7.10;1.60;;;13.60;1.00;;;;;;5083220;28;20675;-81
2023/04/11 12:40:43;;;;;;;6.53;1.97;;;13.60;1.00;;;;;;5097990;28;20198;-79
2023/04/11 12:43:10;;;;;;;3.73;1.37;;;13.50;1.00;;;;;;5106147;28;20226;-80
2023/04/11 12:45:38;;;;;;;2.20;1.40;;;13.70;99.90;;;;;;5104574;28;20217;-79
2023/04/11 12:48:06;;;;;;;6.17;1.73;;;13.70;1.00;;;;;;5104348;28;20269;-79
2023/04/11 12:50:32;;;;;;;5.30;1.63;;;14.10;1.00;;;;;;5104081;28;20307;-79
2023/04/11 12:52:59;;;;;;;4.80;2.23;;;14.20;1.00;;;;;;5106207;28;20216;-76
2023/04/11 12:55:27;;;;;;;5.43;1.93;;;14.40;1.00;;;;;;5103427;28;20773;-78
2023/04/11 12:57:54;;;;;;;3.87;2.00;;;14.50;1.00;;;;;;5098129;28;20233;-79